sensor_id;sensor_type;location;lat;lon;timestamp;P1;durP1;ratioP1;P2;durP2;ratioP2
305;SDS011;137;48.578;9.180;2022-08-19T00:01:39;18.07;;;16.50;;
305;SDS011;137;48.578;9.180;2022-08-19T00:04:08;18.97;;;17.37;;
305;SDS011;137;48.578;9.180;2022-08-19T00:06:38;19.30;;;17.60;;
305;SDS011;137;48.578;9.180;2022-08-19T00:09:09;19.07;;;17.47;;
305;SDS011;137;48.578;9.180;2022-08-19T00:11:39;17.80;;;16.20;;
305;SDS011;137;48.578;9.180;2022-08-19T00:14:09;19.80;;;18.10;;
305;SDS011;137;48.578;9.180;2022-08-19T00:16:39;16.77;;;15.33;;
305;SDS011;137;48.578;9.180;2022-08-19T00:19:07;18.57;;;16.87;;
305;SDS011;137;48.578;9.180;2022-08-19T00:21:34;16.77;;;15.27;;
305;SDS011;137;48.578;9.180;2022-08-19T00:24:03;16.17;;;14.77;;
305;SDS011;137;48.578;9.180;2022-08-19T00:26:32;18.00;;;16.50;;
305;SDS011;137;48.578;9.180;2022-08-19T00:28:59;16.93;;;15.43;;
305;SDS011;137;48.578;9.180;2022-08-19T00:31:26;18.47;;;16.47;;
305;SDS011;137;48.578;9.180;2022-08-19T00:33:53;17.90;;;16.30;;
305;SDS011;137;48.578;9.180;2022-08-19T00:36:20;17.30;;;15.60;;
305;SDS011;137;48.578;9.180;2022-08-19T00:38:47;16.30;;;14.60;;
305;SDS011;137;48.578;9.180;2022-08-19T00:41:17;14.97;;;13.77;;
305;SDS011;137;48.578;9.180;2022-08-19T00:43:57;15.53;;;14.13;;
305;SDS011;137;48.578;9.180;2022-08-19T00:46:26;16.07;;;14.47;;
305;SDS011;137;48.578;9.180;2022-08-19T00:48:53;15.83;;;14.23;;
305;SDS011;137;48.578;9.180;2022-08-19T00:51:21;16.63;;;15.23;;
305;SDS011;137;48.578;9.180;2022-08-19T00:53:51;17.07;;;15.63;;
305;SDS011;137;48.578;9.180;2022-08-19T00:56:20;17.07;;;15.67;;
305;SDS011;137;48.578;9.180;2022-08-19T00:58:47;19.33;;;17.57;;
305;SDS011;137;48.578;9.180;2022-08-19T01:01:15;19.20;;;17.30;;
305;SDS011;137;48.578;9.180;2022-08-19T01:03:42;20.30;;;18.30;;
305;SDS011;137;48.578;9.180;2022-08-19T01:06:09;19.47;;;17.57;;
305;SDS011;137;48.578;9.180;2022-08-19T01:08:36;17.67;;;16.07;;
305;SDS011;137;48.578;9.180;2022-08-19T01:11:03;20.37;;;18.53;;
305;SDS011;137;48.578;9.180;2022-08-19T01:13:32;19.43;;;17.33;;
305;SDS011;137;48.578;9.180;2022-08-19T01:16:02;19.07;;;17.20;;
305;SDS011;137;48.578;9.180;2022-08-19T01:18:35;18.13;;;16.40;;
305;SDS011;137;48.578;9.180;2022-08-19T01:21:07;20.60;;;18.80;;
305;SDS011;137;48.578;9.180;2022-08-19T01:23:42;20.03;;;18.10;;
305;SDS011;137;48.578;9.180;2022-08-19T01:26:10;17.70;;;15.83;;
305;SDS011;137;48.578;9.180;2022-08-19T01:28:39;18.57;;;16.67;;
305;SDS011;137;48.578;9.180;2022-08-19T01:31:07;19.43;;;17.63;;
305;SDS011;137;48.578;9.180;2022-08-19T01:33:39;18.00;;;16.50;;
305;SDS011;137;48.578;9.180;2022-08-19T01:36:07;17.70;;;16.00;;
305;SDS011;137;48.578;9.180;2022-08-19T01:38:37;20.33;;;18.43;;
305;SDS011;137;48.578;9.180;2022-08-19T01:41:07;19.77;;;17.87;;
305;SDS011;137;48.578;9.180;2022-08-19T01:43:35;19.77;;;17.57;;
305;SDS011;137;48.578;9.180;2022-08-19T01:46:02;19.17;;;17.47;;
305;SDS011;137;48.578;9.180;2022-08-19T01:48:32;20.80;;;19.00;;
305;SDS011;137;48.578;9.180;2022-08-19T01:51:00;20.77;;;18.90;;
305;SDS011;137;48.578;9.180;2022-08-19T01:53:27;21.80;;;19.57;;
305;SDS011;137;48.578;9.180;2022-08-19T01:55:55;20.07;;;18.17;;
305;SDS011;137;48.578;9.180;2022-08-19T01:58:24;21.10;;;19.10;;
305;SDS011;137;48.578;9.180;2022-08-19T02:00:55;22.90;;;19.50;;
305;SDS011;137;48.578;9.180;2022-08-19T02:03:23;19.23;;;17.40;;
305;SDS011;137;48.578;9.180;2022-08-19T02:05:53;18.70;;;16.90;;
305;SDS011;137;48.578;9.180;2022-08-19T02:08:21;18.00;;;16.23;;
305;SDS011;137;48.578;9.180;2022-08-19T02:10:48;23.60;;;17.00;;
305;SDS011;137;48.578;9.180;2022-08-19T02:13:15;20.90;;;18.80;;
305;SDS011;137;48.578;9.180;2022-08-19T02:15:44;20.53;;;18.20;;
305;SDS011;137;48.578;9.180;2022-08-19T02:18:11;17.70;;;16.00;;
305;SDS011;137;48.578;9.180;2022-08-19T02:20:39;16.70;;;15.10;;
305;SDS011;137;48.578;9.180;2022-08-19T02:23:07;18.40;;;16.57;;
305;SDS011;137;48.578;9.180;2022-08-19T02:25:35;17.63;;;15.83;;
305;SDS011;137;48.578;9.180;2022-08-19T02:28:02;15.37;;;13.87;;
305;SDS011;137;48.578;9.180;2022-08-19T02:30:29;18.30;;;16.50;;
305;SDS011;137;48.578;9.180;2022-08-19T02:32:57;19.67;;;17.83;;
305;SDS011;137;48.578;9.180;2022-08-19T02:35:24;17.63;;;15.83;;
305;SDS011;137;48.578;9.180;2022-08-19T02:37:52;19.23;;;17.30;;
305;SDS011;137;48.578;9.180;2022-08-19T02:40:36;20.50;;;17.87;;
305;SDS011;137;48.578;9.180;2022-08-19T02:43:04;17.63;;;15.93;;
305;SDS011;137;48.578;9.180;2022-08-19T02:45:33;21.90;;;17.23;;
305;SDS011;137;48.578;9.180;2022-08-19T02:48:02;20.33;;;18.33;;
305;SDS011;137;48.578;9.180;2022-08-19T02:50:30;20.07;;;17.97;;
305;SDS011;137;48.578;9.180;2022-08-19T02:52:57;19.63;;;17.73;;
305;SDS011;137;48.578;9.180;2022-08-19T02:55:24;18.93;;;16.97;;
305;SDS011;137;48.578;9.180;2022-08-19T02:57:51;20.27;;;18.20;;
305;SDS011;137;48.578;9.180;2022-08-19T03:00:17;19.57;;;17.67;;
305;SDS011;137;48.578;9.180;2022-08-19T03:02:44;18.97;;;16.93;;
305;SDS011;137;48.578;9.180;2022-08-19T03:05:13;19.33;;;17.53;;
305;SDS011;137;48.578;9.180;2022-08-19T03:07:39;19.73;;;17.80;;
305;SDS011;137;48.578;9.180;2022-08-19T03:10:07;21.47;;;19.37;;
305;SDS011;137;48.578;9.180;2022-08-19T03:12:35;19.53;;;17.07;;
305;SDS011;137;48.578;9.180;2022-08-19T03:15:03;20.37;;;18.27;;
305;SDS011;137;48.578;9.180;2022-08-19T03:17:31;20.20;;;17.63;;
305;SDS011;137;48.578;9.180;2022-08-19T03:19:58;19.83;;;17.90;;
305;SDS011;137;48.578;9.180;2022-08-19T03:22:26;19.30;;;17.50;;
305;SDS011;137;48.578;9.180;2022-08-19T03:24:55;19.00;;;17.20;;
305;SDS011;137;48.578;9.180;2022-08-19T03:27:21;20.93;;;19.03;;
305;SDS011;137;48.578;9.180;2022-08-19T03:29:48;20.53;;;18.53;;
305;SDS011;137;48.578;9.180;2022-08-19T03:32:15;21.27;;;19.27;;
305;SDS011;137;48.578;9.180;2022-08-19T03:34:42;21.10;;;19.13;;
305;SDS011;137;48.578;9.180;2022-08-19T03:37:09;22.07;;;19.77;;
305;SDS011;137;48.578;9.180;2022-08-19T03:39:39;21.30;;;19.17;;
305;SDS011;137;48.578;9.180;2022-08-19T03:42:07;21.43;;;19.33;;
305;SDS011;137;48.578;9.180;2022-08-19T03:44:34;18.70;;;16.90;;
305;SDS011;137;48.578;9.180;2022-08-19T03:47:02;18.40;;;16.60;;
305;SDS011;137;48.578;9.180;2022-08-19T03:49:31;19.10;;;17.33;;
305;SDS011;137;48.578;9.180;2022-08-19T03:52:00;19.00;;;17.00;;
305;SDS011;137;48.578;9.180;2022-08-19T03:54:29;19.60;;;17.17;;
305;SDS011;137;48.578;9.180;2022-08-19T03:56:58;20.67;;;18.63;;
305;SDS011;137;48.578;9.180;2022-08-19T03:59:25;22.03;;;19.97;;
305;SDS011;137;48.578;9.180;2022-08-19T04:01:54;22.90;;;20.80;;
305;SDS011;137;48.578;9.180;2022-08-19T04:04:21;23.67;;;21.47;;
305;SDS011;137;48.578;9.180;2022-08-19T04:06:49;23.87;;;21.67;;
305;SDS011;137;48.578;9.180;2022-08-19T04:09:16;23.80;;;21.50;;
305;SDS011;137;48.578;9.180;2022-08-19T04:11:44;22.57;;;20.37;;
305;SDS011;137;48.578;9.180;2022-08-19T04:14:15;22.27;;;19.97;;
305;SDS011;137;48.578;9.180;2022-08-19T04:16:43;20.13;;;18.13;;
305;SDS011;137;48.578;9.180;2022-08-19T04:19:12;22.77;;;20.37;;
305;SDS011;137;48.578;9.180;2022-08-19T04:21:40;21.90;;;19.80;;
305;SDS011;137;48.578;9.180;2022-08-19T04:24:10;22.50;;;20.30;;
305;SDS011;137;48.578;9.180;2022-08-19T04:26:38;23.33;;;21.00;;
305;SDS011;137;48.578;9.180;2022-08-19T04:29:06;20.80;;;18.80;;
305;SDS011;137;48.578;9.180;2022-08-19T04:31:35;23.03;;;20.33;;
305;SDS011;137;48.578;9.180;2022-08-19T04:34:03;24.63;;;22.13;;
305;SDS011;137;48.578;9.180;2022-08-19T04:36:35;22.23;;;20.00;;
305;SDS011;137;48.578;9.180;2022-08-19T04:39:05;22.67;;;20.37;;
305;SDS011;137;48.578;9.180;2022-08-19T04:41:33;25.20;;;22.60;;
305;SDS011;137;48.578;9.180;2022-08-19T04:44:18;22.50;;;20.30;;
305;SDS011;137;48.578;9.180;2022-08-19T04:46:47;26.57;;;23.90;;
305;SDS011;137;48.578;9.180;2022-08-19T04:49:15;25.13;;;22.73;;
305;SDS011;137;48.578;9.180;2022-08-19T04:51:44;21.67;;;19.47;;
305;SDS011;137;48.578;9.180;2022-08-19T04:54:13;25.03;;;22.63;;
305;SDS011;137;48.578;9.180;2022-08-19T04:56:40;26.20;;;23.60;;
305;SDS011;137;48.578;9.180;2022-08-19T04:59:06;23.53;;;21.33;;
305;SDS011;137;48.578;9.180;2022-08-19T05:01:33;27.53;;;24.63;;
305;SDS011;137;48.578;9.180;2022-08-19T05:04:03;26.50;;;23.60;;
305;SDS011;137;48.578;9.180;2022-08-19T05:06:31;27.10;;;24.37;;
305;SDS011;137;48.578;9.180;2022-08-19T05:08:59;25.50;;;22.90;;
305;SDS011;137;48.578;9.180;2022-08-19T05:11:27;25.77;;;23.07;;
305;SDS011;137;48.578;9.180;2022-08-19T05:13:55;25.50;;;22.80;;
305;SDS011;137;48.578;9.180;2022-08-19T05:16:24;23.27;;;20.73;;
305;SDS011;137;48.578;9.180;2022-08-19T05:18:51;26.20;;;23.50;;
305;SDS011;137;48.578;9.180;2022-08-19T05:21:39;28.65;;;25.75;;
305;SDS011;137;48.578;9.180;2022-08-19T05:24:25;25.73;;;23.13;;
305;SDS011;137;48.578;9.180;2022-08-19T05:26:53;25.50;;;21.93;;
305;SDS011;137;48.578;9.180;2022-08-19T05:29:23;23.57;;;21.27;;
305;SDS011;137;48.578;9.180;2022-08-19T05:31:52;26.10;;;23.50;;
305;SDS011;137;48.578;9.180;2022-08-19T05:34:20;24.23;;;21.73;;
305;SDS011;137;48.578;9.180;2022-08-19T05:36:52;24.23;;;21.77;;
305;SDS011;137;48.578;9.180;2022-08-19T05:39:23;23.53;;;21.03;;
305;SDS011;137;48.578;9.180;2022-08-19T05:41:54;27.40;;;24.57;;
305;SDS011;137;48.578;9.180;2022-08-19T05:44:22;25.60;;;23.10;;
305;SDS011;137;48.578;9.180;2022-08-19T05:46:50;24.87;;;22.43;;
305;SDS011;137;48.578;9.180;2022-08-19T05:49:19;27.60;;;24.40;;
305;SDS011;137;48.578;9.180;2022-08-19T05:51:47;26.83;;;24.13;;
305;SDS011;137;48.578;9.180;2022-08-19T05:54:17;26.47;;;23.70;;
305;SDS011;137;48.578;9.180;2022-08-19T05:56:44;26.37;;;23.57;;
305;SDS011;137;48.578;9.180;2022-08-19T05:59:12;26.20;;;23.63;;
305;SDS011;137;48.578;9.180;2022-08-19T06:01:42;27.77;;;24.90;;
305;SDS011;137;48.578;9.180;2022-08-19T06:04:11;27.37;;;24.67;;
305;SDS011;137;48.578;9.180;2022-08-19T06:06:39;28.30;;;25.43;;
305;SDS011;137;48.578;9.180;2022-08-19T06:09:06;27.27;;;24.40;;
305;SDS011;137;48.578;9.180;2022-08-19T06:11:39;27.67;;;24.70;;
305;SDS011;137;48.578;9.180;2022-08-19T06:14:10;26.37;;;23.57;;
305;SDS011;137;48.578;9.180;2022-08-19T06:16:38;27.63;;;24.77;;
305;SDS011;137;48.578;9.180;2022-08-19T06:19:08;25.87;;;23.27;;
305;SDS011;137;48.578;9.180;2022-08-19T06:21:37;26.17;;;22.97;;
305;SDS011;137;48.578;9.180;2022-08-19T06:24:05;25.37;;;22.57;;
305;SDS011;137;48.578;9.180;2022-08-19T06:26:34;25.80;;;23.20;;
305;SDS011;137;48.578;9.180;2022-08-19T06:29:05;25.57;;;23.00;;
305;SDS011;137;48.578;9.180;2022-08-19T06:31:34;22.87;;;20.70;;
305;SDS011;137;48.578;9.180;2022-08-19T06:34:02;25.40;;;22.80;;
305;SDS011;137;48.578;9.180;2022-08-19T06:36:31;26.83;;;21.70;;
305;SDS011;137;48.578;9.180;2022-08-19T06:39:01;23.77;;;21.40;;
305;SDS011;137;48.578;9.180;2022-08-19T06:41:30;25.47;;;22.97;;
305;SDS011;137;48.578;9.180;2022-08-19T06:44:01;25.57;;;23.07;;
305;SDS011;137;48.578;9.180;2022-08-19T06:46:28;24.20;;;21.80;;
305;SDS011;137;48.578;9.180;2022-08-19T06:48:55;24.57;;;22.07;;
305;SDS011;137;48.578;9.180;2022-08-19T06:51:23;24.67;;;22.20;;
305;SDS011;137;48.578;9.180;2022-08-19T06:53:51;27.33;;;24.70;;
305;SDS011;137;48.578;9.180;2022-08-19T06:56:20;24.20;;;21.50;;
305;SDS011;137;48.578;9.180;2022-08-19T06:58:49;25.93;;;23.40;;
305;SDS011;137;48.578;9.180;2022-08-19T07:01:19;25.57;;;22.87;;
305;SDS011;137;48.578;9.180;2022-08-19T07:03:46;24.97;;;22.47;;
305;SDS011;137;48.578;9.180;2022-08-19T07:06:14;24.80;;;22.50;;
305;SDS011;137;48.578;9.180;2022-08-19T07:08:45;24.40;;;21.90;;
305;SDS011;137;48.578;9.180;2022-08-19T07:11:13;25.63;;;23.17;;
305;SDS011;137;48.578;9.180;2022-08-19T07:13:43;24.30;;;22.07;;
305;SDS011;137;48.578;9.180;2022-08-19T07:16:11;22.97;;;20.77;;
305;SDS011;137;48.578;9.180;2022-08-19T07:18:41;25.40;;;22.80;;
305;SDS011;137;48.578;9.180;2022-08-19T07:21:10;26.17;;;23.77;;
305;SDS011;137;48.578;9.180;2022-08-19T07:23:38;27.07;;;24.37;;
305;SDS011;137;48.578;9.180;2022-08-19T07:26:05;26.17;;;23.70;;
305;SDS011;137;48.578;9.180;2022-08-19T07:28:33;26.83;;;24.03;;
305;SDS011;137;48.578;9.180;2022-08-19T07:31:04;26.53;;;23.83;;
305;SDS011;137;48.578;9.180;2022-08-19T07:33:31;26.10;;;23.43;;
305;SDS011;137;48.578;9.180;2022-08-19T07:36:03;24.43;;;22.07;;
305;SDS011;137;48.578;9.180;2022-08-19T07:38:31;27.83;;;25.10;;
305;SDS011;137;48.578;9.180;2022-08-19T07:40:58;25.03;;;22.77;;
305;SDS011;137;48.578;9.180;2022-08-19T07:43:25;23.83;;;21.63;;
305;SDS011;137;48.578;9.180;2022-08-19T07:45:53;26.27;;;23.67;;
305;SDS011;137;48.578;9.180;2022-08-19T07:48:22;23.13;;;20.93;;
305;SDS011;137;48.578;9.180;2022-08-19T07:50:51;26.73;;;23.80;;
305;SDS011;137;48.578;9.180;2022-08-19T07:53:20;24.13;;;21.53;;
305;SDS011;137;48.578;9.180;2022-08-19T07:55:47;24.03;;;21.53;;
305;SDS011;137;48.578;9.180;2022-08-19T07:58:15;25.30;;;22.90;;
305;SDS011;137;48.578;9.180;2022-08-19T08:00:43;23.20;;;21.07;;
305;SDS011;137;48.578;9.180;2022-08-19T08:03:11;22.30;;;20.27;;
305;SDS011;137;48.578;9.180;2022-08-19T08:05:39;24.03;;;21.50;;
305;SDS011;137;48.578;9.180;2022-08-19T08:08:25;22.43;;;20.33;;
305;SDS011;137;48.578;9.180;2022-08-19T08:11:10;21.80;;;19.70;;
305;SDS011;137;48.578;9.180;2022-08-19T08:13:37;23.13;;;20.83;;
305;SDS011;137;48.578;9.180;2022-08-19T08:16:06;23.53;;;21.23;;
305;SDS011;137;48.578;9.180;2022-08-19T08:18:33;22.50;;;20.40;;
305;SDS011;137;48.578;9.180;2022-08-19T08:21:06;22.17;;;19.90;;
305;SDS011;137;48.578;9.180;2022-08-19T08:23:35;23.60;;;21.43;;
305;SDS011;137;48.578;9.180;2022-08-19T08:26:02;26.27;;;23.67;;
305;SDS011;137;48.578;9.180;2022-08-19T08:28:29;23.93;;;21.50;;
305;SDS011;137;48.578;9.180;2022-08-19T08:30:57;23.53;;;21.20;;
305;SDS011;137;48.578;9.180;2022-08-19T08:33:25;26.27;;;23.53;;
305;SDS011;137;48.578;9.180;2022-08-19T08:35:53;26.13;;;23.63;;
305;SDS011;137;48.578;9.180;2022-08-19T08:38:20;25.53;;;23.03;;
305;SDS011;137;48.578;9.180;2022-08-19T08:40:49;21.93;;;19.83;;
305;SDS011;137;48.578;9.180;2022-08-19T08:43:21;26.73;;;24.13;;
305;SDS011;137;48.578;9.180;2022-08-19T08:45:52;24.67;;;22.50;;
305;SDS011;137;48.578;9.180;2022-08-19T08:48:29;23.40;;;21.20;;
305;SDS011;137;48.578;9.180;2022-08-19T08:51:02;24.07;;;21.43;;
305;SDS011;137;48.578;9.180;2022-08-19T08:53:31;23.17;;;20.90;;
305;SDS011;137;48.578;9.180;2022-08-19T08:56:02;22.77;;;20.60;;
305;SDS011;137;48.578;9.180;2022-08-19T08:58:34;21.73;;;19.50;;
305;SDS011;137;48.578;9.180;2022-08-19T09:01:08;25.37;;;22.10;;
305;SDS011;137;48.578;9.180;2022-08-19T09:03:36;22.63;;;20.43;;
305;SDS011;137;48.578;9.180;2022-08-19T09:06:07;22.77;;;20.77;;
305;SDS011;137;48.578;9.180;2022-08-19T09:08:44;24.93;;;22.60;;
305;SDS011;137;48.578;9.180;2022-08-19T09:11:19;22.73;;;20.40;;
305;SDS011;137;48.578;9.180;2022-08-19T09:13:53;22.47;;;20.37;;
305;SDS011;137;48.578;9.180;2022-08-19T09:16:29;23.57;;;20.90;;
305;SDS011;137;48.578;9.180;2022-08-19T09:18:57;22.20;;;20.20;;
305;SDS011;137;48.578;9.180;2022-08-19T09:21:27;19.80;;;17.77;;
305;SDS011;137;48.578;9.180;2022-08-19T09:23:54;20.93;;;18.97;;
305;SDS011;137;48.578;9.180;2022-08-19T09:26:23;20.90;;;19.00;;
305;SDS011;137;48.578;9.180;2022-08-19T09:28:51;22.07;;;19.90;;
305;SDS011;137;48.578;9.180;2022-08-19T09:31:20;22.13;;;19.93;;
305;SDS011;137;48.578;9.180;2022-08-19T09:33:48;20.90;;;18.87;;
305;SDS011;137;48.578;9.180;2022-08-19T09:36:15;20.80;;;18.60;;
305;SDS011;137;48.578;9.180;2022-08-19T09:38:44;20.50;;;18.60;;
305;SDS011;137;48.578;9.180;2022-08-19T09:41:12;22.00;;;19.80;;
305;SDS011;137;48.578;9.180;2022-08-19T09:43:43;22.10;;;19.87;;
305;SDS011;137;48.578;9.180;2022-08-19T09:46:12;23.20;;;21.10;;
305;SDS011;137;48.578;9.180;2022-08-19T09:48:43;23.93;;;21.53;;
305;SDS011;137;48.578;9.180;2022-08-19T09:51:13;23.70;;;21.50;;
305;SDS011;137;48.578;9.180;2022-08-19T09:53:41;25.97;;;23.50;;
305;SDS011;137;48.578;9.180;2022-08-19T09:56:10;31.03;;;27.93;;
305;SDS011;137;48.578;9.180;2022-08-19T09:58:39;28.60;;;25.80;;
305;SDS011;137;48.578;9.180;2022-08-19T10:01:08;21.27;;;19.17;;
305;SDS011;137;48.578;9.180;2022-08-19T10:03:41;27.20;;;24.60;;
305;SDS011;137;48.578;9.180;2022-08-19T10:06:08;28.63;;;25.73;;
305;SDS011;137;48.578;9.180;2022-08-19T10:08:35;29.23;;;26.23;;
305;SDS011;137;48.578;9.180;2022-08-19T10:11:04;27.40;;;24.80;;
305;SDS011;137;48.578;9.180;2022-08-19T10:13:33;28.53;;;25.67;;
305;SDS011;137;48.578;9.180;2022-08-19T10:16:03;31.07;;;27.93;;
305;SDS011;137;48.578;9.180;2022-08-19T10:18:33;29.17;;;26.23;;
305;SDS011;137;48.578;9.180;2022-08-19T10:21:04;29.17;;;26.27;;
305;SDS011;137;48.578;9.180;2022-08-19T10:23:35;28.50;;;25.00;;
305;SDS011;137;48.578;9.180;2022-08-19T10:26:02;29.67;;;26.70;;
305;SDS011;137;48.578;9.180;2022-08-19T10:28:30;30.13;;;27.30;;
305;SDS011;137;48.578;9.180;2022-08-19T10:30:58;32.63;;;28.40;;
305;SDS011;137;48.578;9.180;2022-08-19T10:33:29;29.67;;;26.67;;
305;SDS011;137;48.578;9.180;2022-08-19T10:35:59;27.90;;;25.10;;
305;SDS011;137;48.578;9.180;2022-08-19T10:38:27;30.13;;;27.17;;
305;SDS011;137;48.578;9.180;2022-08-19T10:40:55;32.37;;;28.87;;
305;SDS011;137;48.578;9.180;2022-08-19T10:43:21;33.30;;;29.50;;
305;SDS011;137;48.578;9.180;2022-08-19T10:45:51;32.17;;;28.60;;
305;SDS011;137;48.578;9.180;2022-08-19T10:48:21;32.53;;;27.50;;
305;SDS011;137;48.578;9.180;2022-08-19T10:50:47;32.00;;;28.70;;
305;SDS011;137;48.578;9.180;2022-08-19T10:53:33;31.40;;;28.10;;
305;SDS011;137;48.578;9.180;2022-08-19T10:56:00;30.90;;;27.60;;
305;SDS011;137;48.578;9.180;2022-08-19T10:58:45;33.30;;;28.37;;
305;SDS011;137;48.578;9.180;2022-08-19T11:01:12;32.33;;;29.17;;
305;SDS011;137;48.578;9.180;2022-08-19T11:03:38;32.60;;;29.20;;
305;SDS011;137;48.578;9.180;2022-08-19T11:06:06;33.47;;;29.77;;
305;SDS011;137;48.578;9.180;2022-08-19T11:08:36;29.50;;;26.40;;
305;SDS011;137;48.578;9.180;2022-08-19T11:11:03;35.67;;;31.97;;
305;SDS011;137;48.578;9.180;2022-08-19T11:13:33;34.67;;;31.07;;
305;SDS011;137;48.578;9.180;2022-08-19T11:16:03;31.30;;;27.80;;
305;SDS011;137;48.578;9.180;2022-08-19T11:18:33;31.83;;;28.63;;
305;SDS011;137;48.578;9.180;2022-08-19T11:21:08;31.93;;;28.80;;
305;SDS011;137;48.578;9.180;2022-08-19T11:23:38;29.40;;;26.40;;
305;SDS011;137;48.578;9.180;2022-08-19T11:26:06;33.23;;;29.67;;
305;SDS011;137;48.578;9.180;2022-08-19T11:28:33;47.87;;;28.43;;
305;SDS011;137;48.578;9.180;2022-08-19T11:31:00;32.33;;;29.07;;
305;SDS011;137;48.578;9.180;2022-08-19T11:33:28;31.60;;;28.50;;
305;SDS011;137;48.578;9.180;2022-08-19T11:35:56;32.70;;;29.23;;
305;SDS011;137;48.578;9.180;2022-08-19T11:38:23;32.70;;;29.40;;
305;SDS011;137;48.578;9.180;2022-08-19T11:40:55;33.67;;;30.37;;
305;SDS011;137;48.578;9.180;2022-08-19T11:43:23;30.27;;;27.00;;
305;SDS011;137;48.578;9.180;2022-08-19T11:45:51;30.93;;;27.80;;
305;SDS011;137;48.578;9.180;2022-08-19T11:48:18;32.90;;;29.70;;
305;SDS011;137;48.578;9.180;2022-08-19T11:50:47;34.07;;;30.40;;
305;SDS011;137;48.578;9.180;2022-08-19T11:53:14;36.37;;;31.57;;
305;SDS011;137;48.578;9.180;2022-08-19T11:55:41;34.77;;;30.97;;
305;SDS011;137;48.578;9.180;2022-08-19T11:58:11;32.50;;;29.00;;
305;SDS011;137;48.578;9.180;2022-08-19T12:00:38;35.50;;;30.53;;
305;SDS011;137;48.578;9.180;2022-08-19T12:03:06;34.13;;;29.63;;
305;SDS011;137;48.578;9.180;2022-08-19T12:05:35;32.23;;;28.83;;
305;SDS011;137;48.578;9.180;2022-08-19T12:08:03;36.20;;;32.20;;
305;SDS011;137;48.578;9.180;2022-08-19T12:10:29;35.57;;;31.77;;
305;SDS011;137;48.578;9.180;2022-08-19T12:12:56;30.97;;;27.60;;
305;SDS011;137;48.578;9.180;2022-08-19T12:15:25;33.97;;;30.27;;
305;SDS011;137;48.578;9.180;2022-08-19T12:17:54;34.40;;;30.90;;
305;SDS011;137;48.578;9.180;2022-08-19T12:20:21;32.67;;;29.23;;
305;SDS011;137;48.578;9.180;2022-08-19T12:22:49;32.83;;;29.30;;
305;SDS011;137;48.578;9.180;2022-08-19T12:25:17;36.83;;;30.77;;
305;SDS011;137;48.578;9.180;2022-08-19T12:27:43;35.33;;;31.60;;
305;SDS011;137;48.578;9.180;2022-08-19T12:30:11;32.93;;;29.43;;
305;SDS011;137;48.578;9.180;2022-08-19T12:32:40;33.30;;;29.90;;
305;SDS011;137;48.578;9.180;2022-08-19T12:35:07;32.97;;;29.60;;
305;SDS011;137;48.578;9.180;2022-08-19T12:37:36;33.13;;;29.67;;
305;SDS011;137;48.578;9.180;2022-08-19T12:40:04;33.33;;;29.90;;
305;SDS011;137;48.578;9.180;2022-08-19T12:42:31;31.27;;;28.10;;
305;SDS011;137;48.578;9.180;2022-08-19T12:44:58;34.60;;;31.23;;
305;SDS011;137;48.578;9.180;2022-08-19T12:47:25;26.97;;;24.30;;
305;SDS011;137;48.578;9.180;2022-08-19T12:49:53;30.77;;;27.83;;
305;SDS011;137;48.578;9.180;2022-08-19T12:52:21;29.47;;;26.77;;
305;SDS011;137;48.578;9.180;2022-08-19T12:54:49;29.93;;;26.70;;
305;SDS011;137;48.578;9.180;2022-08-19T12:57:16;29.87;;;26.90;;
305;SDS011;137;48.578;9.180;2022-08-19T12:59:43;29.40;;;26.60;;
305;SDS011;137;48.578;9.180;2022-08-19T13:02:10;28.43;;;25.80;;
305;SDS011;137;48.578;9.180;2022-08-19T13:04:36;28.43;;;25.93;;
305;SDS011;137;48.578;9.180;2022-08-19T13:07:07;27.70;;;25.20;;
305;SDS011;137;48.578;9.180;2022-08-19T13:09:34;27.53;;;24.90;;
305;SDS011;137;48.578;9.180;2022-08-19T13:12:01;27.47;;;24.70;;
305;SDS011;137;48.578;9.180;2022-08-19T13:14:32;27.43;;;24.93;;
305;SDS011;137;48.578;9.180;2022-08-19T13:16:59;26.80;;;24.20;;
305;SDS011;137;48.578;9.180;2022-08-19T13:19:27;28.13;;;25.43;;
305;SDS011;137;48.578;9.180;2022-08-19T13:21:55;27.77;;;25.37;;
305;SDS011;137;48.578;9.180;2022-08-19T13:24:24;29.77;;;27.17;;
305;SDS011;137;48.578;9.180;2022-08-19T13:26:51;28.70;;;26.00;;
305;SDS011;137;48.578;9.180;2022-08-19T13:29:17;30.37;;;26.87;;
305;SDS011;137;48.578;9.180;2022-08-19T13:32:02;29.73;;;26.70;;
305;SDS011;137;48.578;9.180;2022-08-19T13:34:47;28.50;;;25.50;;
305;SDS011;137;48.578;9.180;2022-08-19T13:37:13;26.60;;;23.80;;
305;SDS011;137;48.578;9.180;2022-08-19T13:39:42;28.37;;;25.67;;
305;SDS011;137;48.578;9.180;2022-08-19T13:42:09;29.47;;;26.77;;
305;SDS011;137;48.578;9.180;2022-08-19T13:44:38;27.43;;;25.13;;
305;SDS011;137;48.578;9.180;2022-08-19T13:47:05;27.90;;;25.30;;
305;SDS011;137;48.578;9.180;2022-08-19T13:49:33;31.37;;;27.13;;
305;SDS011;137;48.578;9.180;2022-08-19T13:52:01;28.33;;;25.83;;
305;SDS011;137;48.578;9.180;2022-08-19T13:54:28;28.83;;;26.10;;
305;SDS011;137;48.578;9.180;2022-08-19T13:56:57;27.87;;;25.23;;
305;SDS011;137;48.578;9.180;2022-08-19T13:59:23;28.20;;;25.40;;
305;SDS011;137;48.578;9.180;2022-08-19T14:01:50;27.87;;;25.20;;
305;SDS011;137;48.578;9.180;2022-08-19T14:04:18;27.00;;;24.13;;
305;SDS011;137;48.578;9.180;2022-08-19T14:06:45;26.53;;;24.00;;
305;SDS011;137;48.578;9.180;2022-08-19T14:09:11;26.70;;;24.40;;
305;SDS011;137;48.578;9.180;2022-08-19T14:11:38;29.17;;;26.40;;
305;SDS011;137;48.578;9.180;2022-08-19T14:14:06;26.47;;;24.17;;
305;SDS011;137;48.578;9.180;2022-08-19T14:16:33;27.77;;;25.20;;
305;SDS011;137;48.578;9.180;2022-08-19T14:19:00;26.17;;;23.77;;
305;SDS011;137;48.578;9.180;2022-08-19T14:21:27;25.60;;;22.90;;
305;SDS011;137;48.578;9.180;2022-08-19T14:23:54;26.93;;;24.63;;
305;SDS011;137;48.578;9.180;2022-08-19T14:26:21;27.30;;;24.50;;
305;SDS011;137;48.578;9.180;2022-08-19T14:28:49;26.50;;;24.00;;
305;SDS011;137;48.578;9.180;2022-08-19T14:31:18;26.13;;;23.77;;
305;SDS011;137;48.578;9.180;2022-08-19T14:33:48;27.67;;;24.97;;
305;SDS011;137;48.578;9.180;2022-08-19T14:36:16;27.57;;;24.80;;
305;SDS011;137;48.578;9.180;2022-08-19T14:38:44;28.23;;;25.57;;
305;SDS011;137;48.578;9.180;2022-08-19T14:41:12;26.03;;;23.80;;
305;SDS011;137;48.578;9.180;2022-08-19T14:43:42;25.60;;;23.20;;
305;SDS011;137;48.578;9.180;2022-08-19T14:46:10;27.37;;;24.83;;
305;SDS011;137;48.578;9.180;2022-08-19T14:48:39;24.97;;;22.57;;
305;SDS011;137;48.578;9.180;2022-08-19T14:51:06;23.90;;;21.50;;
305;SDS011;137;48.578;9.180;2022-08-19T14:53:33;25.87;;;23.37;;
305;SDS011;137;48.578;9.180;2022-08-19T14:56:00;27.57;;;24.90;;
305;SDS011;137;48.578;9.180;2022-08-19T14:58:28;28.30;;;25.80;;
305;SDS011;137;48.578;9.180;2022-08-19T15:00:55;25.93;;;23.47;;
305;SDS011;137;48.578;9.180;2022-08-19T15:03:23;25.63;;;23.30;;
305;SDS011;137;48.578;9.180;2022-08-19T15:05:52;24.30;;;22.20;;
305;SDS011;137;48.578;9.180;2022-08-19T15:08:19;24.77;;;22.47;;
305;SDS011;137;48.578;9.180;2022-08-19T15:10:49;24.13;;;22.03;;
305;SDS011;137;48.578;9.180;2022-08-19T15:13:16;25.23;;;22.70;;
305;SDS011;137;48.578;9.180;2022-08-19T15:15:44;24.27;;;22.17;;
305;SDS011;137;48.578;9.180;2022-08-19T15:18:12;26.63;;;23.97;;
305;SDS011;137;48.578;9.180;2022-08-19T15:20:39;26.60;;;24.00;;
305;SDS011;137;48.578;9.180;2022-08-19T15:23:07;25.58;;;23.33;;
305;SDS011;137;48.578;9.180;2022-08-19T15:25:35;24.37;;;22.20;;